Tiempo atmosférico en la estación meteorológica de Las Palmas de Gran Canaria, San Cristobal, Las Palmas (55 m.)



Fecha
DESCASC
Temp. máxima en grados centígrados (hora)
DESCASC
Temp. mínima en grados centígrados (hora)
DESCASC
Temp. media en grados centígrados
DESCASC
Racha de viento máxima en m/sg (hora)
DESCASC
Velocidad máxima media en intervalos de 10 minutos(hora)
DESCASC
Precipitaciones diarias en mm
DESCASC
Precipitaciones de 00:00 a 06:00 en mm
DESCASC
Precipitaciones de 06:00 a 12:00 en mm
DESCASC
Precipitaciones de 12:00 a 18:00 en mm
DESCASC
Precipitaciones de 18:00 a 24:00 en mm
DESCASC
13-10-2019 27 (10:30) 20.7 (06:40) 23.9 7.22 (13:40) 4.72 (13:40) 0 0 0 0 0
12-10-2019 27.3 (14:30) 21.3 (05:20) 24.3 7.78 (17:30) 5 (17:30) 0 0 0 0 0
11-10-2019 26.9 (14:40) 20.7 (04:00) 23.8 10.83 (17:00) 5.83 (17:20) 0 0 0 0 0
10-10-2019 25.9 (14:50) 21.5 (00:00) 23.7 7.5 (18:20) 4.17 (16:50) 0 0 0 0 0
09-10-2019 26.1 (15:50) 21 (00:00) 23.6 8.61 (18:20) 5.83 (09:40) 0 0 0 0 0
08-10-2019 25.2 (13:50) 21.5 (00:00) 23.4 10.28 (17:10) 6.94 (17:10) 0 0 0 0 0
07-10-2019 27.1 (12:40) 21.6 (00:00) 24.4 10.28 (18:20) 6.67 (18:20) 0 0 0 0 0
06-10-2019 25.7 (13:00) 21.3 (00:00) 23.5 11.11 (17:00) 5.83 (00:30) 0 0 0 0 0
05-10-2019 26.1 (13:50) 22.1 (00:00) 24.1 10.83 (17:00) 7.22 (14:00) 0 0 0 0 0
04-10-2019 25.6 (13:50) 21.7 (00:00) 23.7 13.33 (06:30) 7.78 (22:10) 0 0 0 0 0
03-10-2019 26.1 (15:20) 22.1 (00:00) 24.1 10.83 (20:50) 7.22 (23:00) 0 0 0 0 0
02-10-2019 27.9 (14:10) 21.6 (00:00) 24.8 9.17 (04:20) 5.83 (04:20) 0 0 0 0 0
01-10-2019 27.3 (16:00) 21.6 (00:00) 24.4 16.39 (08:30) 6.94 (00:10) 0 0 0 0 0
30-09-2019 25.9 (13:10) 21.3 (00:00) 23.6 22.5 (23:30) 9.44 (17:20) 0 0 0 0 0
29-09-2019 26 (17:20) 21.8 (00:00) 23.9 11.39 (20:50) 8.06 (21:00) 0 0 0 0 0
28-09-2019 26.3 (12:50) 21.3 (00:00) 23.8 8.89 (22:30) 5.28 (21:10) 0 0 0 0 0
27-09-2019 25.6 (13:20) 21.9 (00:00) 23.8 8.61 (12:20) 5.28 (16:30) 0 0 0 0 0
26-09-2019 26 (12:20) 22 (00:00) 24 8.33 (19:00) 5 (16:30) 0 0 0 0 0
25-09-2019 25.6 (12:30) 21.7 (00:00) 23.7 10.83 (05:30) 6.39 (05:40) 0 0 0 0 0
24-09-2019 25.6 (17:00) 21.7 (00:00) 23.7 16.67 (18:00) 5.83 (19:50) 0 0 0 0 0
23-09-2019 26.4 (12:40) 21.8 (00:00) 24.1 8.33 (15:00) 5.28 (15:50) 0 0 0 0 0
22-09-2019 28 (13:30) 21.7 (00:00) 24.9 8.61 (15:30) 5.56 (13:00) 0.3 0 0 0 0.3
21-09-2019 26.7 (17:00) 21 (00:00) 23.9 9.72 (16:10) 6.11 (17:40) 0 0 0 0 0
20-09-2019 27.4 (10:50) 21.6 (00:00) 24.5 10 (18:10) 6.67 (17:50) 0 0 0 0 0
19-09-2019 26.2 (15:00) 21.7 (00:00) 24 8.33 (20:50) 5 (23:30) 0 0 0 0 0
18-09-2019 27.2 (14:00) 21.5 (00:00) 24.4 6.94 (13:30) 4.44 (03:50) 0 0 0 0 0
17-09-2019 26.3 (14:10) 21.6 (00:00) 23.9 10.28 (00:30) 6.11 (00:10) 0 0 0 0 0
16-09-2019 26.5 (16:30) 21.5 (00:00) 24 16.11 (07:50) 10.28 (07:50) 1.8 0 0.2 1.6 0
15-09-2019 27.9 (13:50) 20.8 (00:00) 24.3 6.11 (12:50) 3.06 (23:50) 0 0 0 0 0

Gráficas

Temp. máximas Temp. mínimas Temp. medias Precipitaciones Rachas de viento máximas Velocidades máximas media en intervalos de 10 minutos

Datos horarios

Fecha y hora oficial Temperatura (ºC) Velocidad del viento (km/h) Dirección del viento Racha (km/h) Dirección de racha Precipitación (mm) Presión (hPa) Tendencia (hPa) Humedad (%)
2019-10-14 23:00:00 21.5 8 Norte 19 Norte 0 -- -- 69
2019-10-14 22:00:00 21.5 10 Norte 19 Noroeste 0 -- -- 69
2019-10-14 21:00:00 21.4 14 Norte 22 Norte 0 -- -- 68
2019-10-14 20:00:00 21.4 13 Norte 24 Norte 0 -- -- 68
2019-10-14 19:00:00 22.4 17 Norte 25 Noroeste 0 -- -- 67
2019-10-14 18:00:00 23 12 Norte 25 Norte 0 -- -- 65
2019-10-14 17:00:00 21.9 14 Norte 25 Norte 0 -- -- 67
2019-10-14 16:00:00 21.9 15 Norte 26 Noroeste 0 -- -- 67
2019-10-14 15:00:00 22.4 15 Norte 26 Norte 0 -- -- 66
2019-10-14 14:00:00 24.8 12 Norte 27 Nordeste 0 -- -- 62
2019-10-14 13:00:00 22.3 12 Norte 24 Norte 0 -- -- 66
2019-10-14 12:00:00 21.9 12 Norte 28 Norte 0.1 -- -- 69
2019-10-14 11:00:00 22.8 12 Norte 25 Norte 0 -- -- 68
2019-10-14 10:00:00 23.4 12 Norte 24 Norte 0 -- -- 66
2019-10-14 09:00:00 22.3 16 Norte 25 Norte 0 -- -- 68
2019-10-14 08:00:00 21.3 12 Noroeste 22 Norte 0.1 -- -- 74
2019-10-14 07:00:00 22.6 10 Norte 19 Noroeste 0 -- -- 74
2019-10-14 06:00:00 20.5 11 Noroeste 17 Noroeste 0.1 -- -- 78
2019-10-14 05:00:00 21.1 8 Oeste 17 Noroeste 0 -- -- 73
2019-10-14 04:00:00 21.2 10 Noroeste 23 Oeste 0 -- -- 70
2019-10-14 03:00:00 20.9 12 Noroeste 19 Noroeste 0 -- -- 67
2019-10-14 02:00:00 21.2 11 Oeste 21 Noroeste 0 -- -- 65
2019-10-14 01:00:00 21.1 10 Oeste 17 Noroeste 0 -- -- 63
2019-10-14 00:00:00 21.2 10 Oeste 16 Noroeste 0 -- -- 59
2019-10-13 23:00:00 21.4 7 Oeste 10 Oeste 0 -- -- 59
2019-10-13 22:00:00 21.6 3 Oeste 11 Noroeste 0 -- -- 61
2019-10-13 21:00:00 22 5 Noroeste 10 Noroeste 0 -- -- 61
2019-10-13 20:00:00 22.1 0 Calma 8 Nordeste 0 -- -- 62
2019-10-13 19:00:00 22.9 6 Nordeste 14 Nordeste 0 -- -- 59
2019-10-13 18:00:00 22.7 11 Nordeste 17 Nordeste 0 -- -- 59
2019-10-13 17:00:00 22.7 8 Nordeste 20 Nordeste 0 -- -- 59
2019-10-13 16:00:00 22.9 14 Nordeste 20 Nordeste 0 -- -- 58
2019-10-13 15:00:00 -- -- -- -- -- -- -- -- --
2019-10-13 14:00:00 25.3 12 Nordeste 26 Nordeste 0 -- -- 54
2019-10-13 13:00:00 24.7 10 Norte 25 Noroeste 0 -- -- 52
2019-10-13 12:00:00 23.6 12 Norte 25 Norte 0 -- -- 53
2019-10-13 11:00:00 23.2 9 Norte 18 Norte 0 -- -- 52
2019-10-13 10:00:00 24.2 5 Norte 13 Oeste 0 -- -- 51
2019-10-13 09:00:00 21.5 11 Sudoeste 17 Oeste 0 -- -- 58
2019-10-13 08:00:00 21.1 8 Oeste 17 Oeste 0 -- -- 61
2019-10-13 07:00:00 20.8 14 Oeste 19 Oeste 0 -- -- 62
2019-10-13 06:00:00 21 9 Oeste 14 Oeste 0 -- -- 62
2019-10-13 05:00:00 21.1 4 Oeste 9 Oeste 0 -- -- 64
2019-10-13 04:00:00 21.3 3 Noroeste 13 Nordeste 0 -- -- 68
2019-10-13 03:00:00 21.5 5 Norte 12 Norte 0 -- -- 68
2019-10-13 02:00:00 21.6 8 Norte 13 Norte 0 -- -- 68
2019-10-13 01:00:00 21.6 7 Norte 13 Nordeste 0 -- -- 70
2019-10-13 00:00:00 21.7 5 Noroeste 15 Norte 0 -- -- 70
2019-10-12 23:00:00 21.9 8 Norte 17 Norte 0 -- -- 69
2019-10-12 22:00:00 22 10 Norte 19 Norte 0 -- -- 69
2019-10-12 21:00:00 23 12 Noroeste 23 Noroeste 0 -- -- 69
2019-10-12 20:00:00 22.1 13 Norte 22 Noroeste 0 -- -- 67
2019-10-12 19:00:00 22.2 13 Norte 23 Norte 0 -- -- 67
2019-10-12 18:00:00 22.5 17 Norte 28 Norte 0 -- -- 63
2019-10-12 17:00:00 22.4 14 Norte 22 Norte 0 -- -- 64
2019-10-12 16:00:00 23.5 9 Nordeste 21 Nordeste 0 -- -- 63
2019-10-12 15:00:00 23.4 11 Nordeste 21 Nordeste 0 -- -- 64
2019-10-12 14:00:00 24.4 10 Nordeste 18 Nordeste 0 -- -- 53
2019-10-12 13:00:00 24.7 9 Nordeste 21 Nordeste 0 -- -- 57
2019-10-12 12:00:00 24.6 12 Nordeste 18 Nordeste 0 -- -- 59
2019-10-12 11:00:00 22.1 11 Nordeste 20 Nordeste 0 -- -- 69
2019-10-12 10:00:00 23.3 10 Nordeste 18 Nordeste 0 -- -- 66
2019-10-12 09:00:00 22.2 8 Norte 15 Norte 0 -- -- 67
2019-10-12 08:00:00 23.1 5 Norte 14 Norte 0 -- -- 70
2019-10-12 07:00:00 21.8 6 Noroeste 13 Noroeste 0 -- -- 70
2019-10-12 06:00:00 21.5 9 Noroeste 15 Noroeste 0 -- -- 70
2019-10-12 05:00:00 21.5 7 Noroeste 17 Noroeste 0 -- -- 72
2019-10-12 04:00:00 21.7 10 Noroeste 21 Norte 0 -- -- 70
2019-10-12 03:00:00 21.7 11 Norte 22 Norte 0 -- -- 70
2019-10-12 02:00:00 21.6 14 Noroeste 27 Noroeste 0 -- -- 72
2019-10-12 01:00:00 21.7 13 Noroeste 23 Noroeste 0 -- -- 70
2019-10-12 00:00:00 21.8 17 Noroeste 26 Noroeste 0 -- -- 69
2019-10-11 23:00:00 22 15 Noroeste 23 Noroeste 0 -- -- 70
2019-10-11 22:00:00 22.1 14 Noroeste 25 Noroeste 0 -- -- 69
2019-10-11 21:00:00 22.2 13 Noroeste 26 Noroeste 0 -- -- 69
2019-10-11 20:00:00 22.1 15 Noroeste 27 Norte 0 -- -- 68
2019-10-11 19:00:00 22.2 16 Noroeste 30 Noroeste 0 -- -- 69
2019-10-11 18:00:00 22.6 18 Noroeste 32 Noroeste 0 -- -- 68
2019-10-11 17:00:00 22.9 19 Noroeste 39 Noroeste 0 -- -- 67
2019-10-11 16:00:00 23.7 17 Noroeste 34 Noroeste 0 -- -- 61
2019-10-11 15:00:00 24.4 12 Noroeste 33 Noroeste 0 -- -- 57
2019-10-11 14:00:00 24 14 Norte 24 Norte 0 -- -- 61
2019-10-11 13:00:00 23.6 12 Nordeste 23 Nordeste 0 -- -- 64
2019-10-11 12:00:00 24 9 Nordeste 18 Nordeste 0 -- -- 63
2019-10-11 11:00:00 22.9 12 Norte 20 Noroeste 0 -- -- 63
2019-10-11 10:00:00 23.1 7 Noroeste 18 Noroeste 0 -- -- 64
2019-10-11 09:00:00 22 8 Oeste 17 Oeste 0 -- -- 63
2019-10-11 08:00:00 21.1 7 Oeste 18 Oeste 0 -- -- 67
2019-10-11 07:00:00 21 10 Noroeste 21 Noroeste 0 -- -- 65
2019-10-11 06:00:00 20.8 12 Oeste 23 Oeste 0 -- -- 65
2019-10-11 05:00:00 21 13 Oeste 21 Oeste 0 -- -- 66
2019-10-11 04:00:00 20.9 9 Oeste 17 Oeste 0 -- -- 68
2019-10-11 03:00:00 20.9 8 Noroeste 18 Noroeste 0 -- -- 71
2019-10-11 02:00:00 21.2 8 Oeste 18 Noroeste 0 -- -- 75
2019-10-11 01:00:00 21.6 6 Noroeste 14 Noroeste 0 -- -- 74
2019-10-11 00:00:00 21.8 9 Noroeste 16 Nordeste 0 -- -- 72
2019-10-10 23:00:00 22.1 7 Norte 21 Norte 0 -- -- 72
2019-10-10 22:00:00 22.3 10 Norte 21 Nordeste 0 -- -- 73
2019-10-10 21:00:00 22.2 10 Norte 20 Norte 0 -- -- 73
2019-10-10 20:00:00 22.2 12 Norte 23 Nordeste 0 -- -- 74
2019-10-10 19:00:00 23.1 13 Norte 27 Norte 0 -- -- 73
2019-10-10 18:00:00 22.7 11 Nordeste 25 Norte 0 -- -- 73
2019-10-10 17:00:00 23.2 10 Norte 24 Norte 0 -- -- 72
2019-10-10 16:00:00 23.4 12 Nordeste 23 Nordeste 0 -- -- 69
2019-10-10 15:00:00 23.8 10 Nordeste 21 Nordeste 0 -- -- 66
2019-10-10 14:00:00 24.8 9 Norte 20 Nordeste 0 -- -- 69
2019-10-10 13:00:00 23.8 12 Nordeste 19 Nordeste 0 -- -- 68
2019-10-10 12:00:00 23 10 Nordeste 21 Nordeste 0 -- -- 70
2019-10-10 11:00:00 24.1 7 Norte 20 Norte 0 -- -- 69
2019-10-10 10:00:00 23 10 Noroeste 18 Noroeste 0 -- -- 70
2019-10-10 09:00:00 22.5 6 Oeste 19 Noroeste 0 -- -- 67
2019-10-10 08:00:00 21.7 9 Oeste 20 Oeste 0 -- -- 70
2019-10-10 07:00:00 21.7 12 Oeste 19 Noroeste 0 -- -- 69
2019-10-10 06:00:00 22.5 10 Oeste 20 Noroeste 0 -- -- 66
2019-10-10 05:00:00 21.7 12 Noroeste 18 Noroeste 0 -- -- 68
2019-10-10 04:00:00 21.9 13 Noroeste 20 Noroeste 0 -- -- 68
2019-10-10 03:00:00 22 8 Noroeste 14 Noroeste 0 -- -- 68
2019-10-10 02:00:00 22.2 7 Noroeste 12 Noroeste 0 -- -- 67
2019-10-10 01:00:00 22.1 10 Noroeste 18 Norte 0 -- -- 68
2019-10-10 00:00:00 22.4 12 Norte 21 Norte 0 -- -- 67
2019-10-09 23:00:00 22.4 10 Noroeste 23 Noroeste 0 -- -- 68
2019-10-09 22:00:00 22.4 13 Noroeste 21 Noroeste 0 -- -- 67
2019-10-09 21:00:00 22.3 13 Noroeste 23 Norte 0 -- -- 64
2019-10-09 20:00:00 22.5 10 Norte 28 Noroeste 0 -- -- 64
2019-10-09 19:00:00 22.5 16 Noroeste 31 Noroeste 0 -- -- 63
2019-10-09 18:00:00 23.3 14 Noroeste 30 Noroeste 0 -- -- 59
2019-10-09 17:00:00 23 14 Norte 30 Norte 0 -- -- 61
2019-10-09 16:00:00 24 9 Norte 26 Norte 0 -- -- 59
2019-10-09 15:00:00 23.6 13 Norte 28 Nordeste 0 -- -- 62
2019-10-09 14:00:00 22.8 14 Norte 28 Norte 0 -- -- 63
2019-10-09 13:00:00 23.7 15 Norte 27 Norte 0 -- -- 61
2019-10-09 12:00:00 23 17 Norte 28 Norte 0 -- -- 63
2019-10-09 11:00:00 22.6 13 Noroeste 27 Noroeste 0 -- -- 64
2019-10-09 10:00:00 21.8 17 Noroeste 31 Noroeste 0 -- -- 67
2019-10-09 09:00:00 21.9 10 Norte 26 Norte 0 -- -- 67
2019-10-09 08:00:00 21.5 13 Noroeste 26 Noroeste 0 -- -- 67
2019-10-09 07:00:00 21.5 15 Noroeste 28 Noroeste 0 -- -- 67
2019-10-09 06:00:00 21.7 13 Noroeste 27 Noroeste 0 -- -- 67
2019-10-09 05:00:00 21.4 16 Noroeste 27 Noroeste 0 -- -- 67
2019-10-09 04:00:00 21.5 16 Noroeste 29 Noroeste 0 -- -- 68
2019-10-09 03:00:00 21.6 14 Noroeste 29 Noroeste 0 -- -- 68
2019-10-09 02:00:00 21.7 13 Noroeste 29 Noroeste 0 -- -- 69
2019-10-09 01:00:00 21.8 17 Noroeste 26 Norte 0 -- -- 70
2019-10-09 00:00:00 21.6 13 Noroeste 27 Noroeste 0 -- -- 70
2019-10-08 23:00:00 21.9 14 Noroeste 28 Noroeste 0 -- -- 70
2019-10-08 22:00:00 23 18 Noroeste 27 Noroeste 0 -- -- 70
2019-10-08 21:00:00 22 18 Noroeste 29 Noroeste 0 -- -- 70
2019-10-08 20:00:00 22.1 13 Noroeste 29 Noroeste 0 -- -- 70
2019-10-08 19:00:00 22.4 15 Noroeste 32 Noroeste 0 -- -- 69
2019-10-08 18:00:00 23.1 17 Noroeste 37 Noroeste 0 -- -- 67
2019-10-08 17:00:00 23.3 19 Noroeste 35 Noroeste 0 -- -- 66
2019-10-08 16:00:00 24.2 14 Norte 24 Nordeste 0 -- -- 65
2019-10-08 15:00:00 23.5 11 Norte 27 Nordeste 0 -- -- 66
2019-10-08 14:00:00 23.1 13 Norte 28 Nordeste 0 -- -- 67
2019-10-08 13:00:00 23.3 13 Norte 29 Norte 0 -- -- 64
2019-10-08 12:00:00 22.5 18 Norte 27 Norte 0 -- -- 68
2019-10-08 11:00:00 22.2 17 Noroeste 26 Noroeste 0 -- -- 70
2019-10-08 10:00:00 23.2 13 Norte 22 Norte 0 -- -- 69
2019-10-08 09:00:00 22.1 12 Noroeste 24 Norte 0 -- -- 70
2019-10-08 08:00:00 21.9 15 Noroeste 26 Norte 0 -- -- 70
2019-10-08 07:00:00 22 12 Noroeste 25 Noroeste 0 -- -- 72
2019-10-08 06:00:00 21.6 18 Noroeste 30 Noroeste 0 -- -- 73
2019-10-08 05:00:00 21.9 14 Norte 23 Noroeste 0 -- -- 72
2019-10-08 04:00:00 22.1 14 Noroeste 21 Noroeste 0 -- -- 70
2019-10-08 03:00:00 22.2 14 Norte 19 Norte 0 -- -- 71
2019-10-08 02:00:00 22.5 10 Norte 21 Noroeste 0 -- -- 70
2019-10-08 01:00:00 22.4 12 Noroeste 30 Noroeste 0 -- -- 69
2019-10-08 00:00:00 22.1 16 Noroeste 30 Noroeste 0 -- -- 69
2019-10-07 23:00:00 22.2 16 Noroeste 26 Norte 0 -- -- 69
2019-10-07 22:00:00 22.5 13 Noroeste 27 Norte 0 -- -- 70
2019-10-07 21:00:00 22.4 15 Noroeste 30 Noroeste 0 -- -- 70
2019-10-07 20:00:00 23.7 17 Noroeste 32 Noroeste 0 -- -- 71
2019-10-07 19:00:00 22.7 18 Noroeste 37 Noroeste 0 -- -- 69
2019-10-07 18:00:00 23.1 19 Noroeste 31 Noroeste 0 -- -- 69
2019-10-07 17:00:00 24.5 15 Norte 29 Nordeste 0 -- -- 67
2019-10-07 16:00:00 23.8 12 Norte 27 Nordeste 0 -- -- 66
2019-10-07 15:00:00 24.1 11 Nordeste 23 Nordeste 0 -- -- 64
2019-10-07 14:00:00 25.6 4 Norte 20 Nordeste 0 -- -- 61
2019-10-07 13:00:00 24.9 7 Nordeste 21 Nordeste 0 -- -- 59
2019-10-07 12:00:00 24.1 9 Nordeste 18 Nordeste 0 -- -- 64
2019-10-07 11:00:00 23.7 3 Nordeste 15 Norte 0 -- -- 67
2019-10-07 10:00:00 22.5 8 Norte 19 Norte 0 -- -- 67
2019-10-07 09:00:00 23.2 9 Norte 21 Norte 0 -- -- 69
2019-10-07 08:00:00 22.9 14 Norte 23 Noroeste 0 -- -- 68
2019-10-07 07:00:00 21.9 10 Norte 25 Nordeste 0 -- -- 69
2019-10-07 06:00:00 21.9 14 Noroeste 24 Noroeste 0 -- -- 70
2019-10-07 05:00:00 21.8 14 Noroeste 24 Noroeste 0 -- -- 69
2019-10-07 04:00:00 21.8 14 Noroeste 23 Noroeste 0 -- -- 70
2019-10-07 03:00:00 21.8 15 Noroeste 30 Noroeste 0 -- -- 69
2019-10-07 02:00:00 22 17 Noroeste 25 Noroeste 0 -- -- 69
2019-10-07 01:00:00 22 11 Noroeste 23 Norte 0 -- -- 68
2019-10-07 00:00:00 22.2 11 Noroeste 26 Noroeste 0 -- -- 68
2019-10-06 23:00:00 22.2 17 Norte 29 Noroeste 0 -- -- 67
2019-10-06 22:00:00 22.4 17 Norte 24 Norte 0 -- -- 68
2019-10-06 21:00:00 23.6 15 Noroeste 27 Norte 0 -- -- 66
2019-10-06 20:00:00 22.5 14 Norte 24 Norte 0 -- -- 68
2019-10-06 19:00:00 22.5 16 Norte 27 Norte 0 -- -- 72
2019-10-06 18:00:00 23 14 Norte 29 Norte 0 -- -- 67
2019-10-06 17:00:00 23 16 Norte 40 Norte 0 -- -- 65
2019-10-06 16:00:00 23.1 15 Norte 29 Norte 0 -- -- 68
2019-10-06 15:00:00 23.1 14 Norte 28 Norte 0 -- -- 65
2019-10-06 14:00:00 23.3 17 Norte 29 Norte 0 -- -- 64
2019-10-06 13:00:00 24.2 10 Nordeste 26 Nordeste 0 -- -- 64
2019-10-06 12:00:00 23.4 15 Norte 26 Norte 0 -- -- 65
2019-10-06 11:00:00 22.4 18 Norte 28 Norte 0 -- -- 68
2019-10-06 10:00:00 22.1 18 Norte 30 Noroeste 0 -- -- 70
2019-10-06 09:00:00 22.2 15 Noroeste 27 Norte 0 -- -- 69
2019-10-06 08:00:00 22.2 13 Noroeste 26 Norte 0 -- -- 69
2019-10-06 07:00:00 21.9 13 Noroeste 24 Noroeste 0 -- -- 75
2019-10-06 06:00:00 21.9 13 Norte 26 Noroeste 0 -- -- 74
2019-10-06 05:00:00 21.8 13 Noroeste 24 Norte 0 -- -- 75
2019-10-06 04:00:00 21.5 12 Noroeste 27 Noroeste 0 -- -- 76
2019-10-06 03:00:00 22.2 14 Noroeste 26 Noroeste 0 -- -- 73
2019-10-06 02:00:00 22.3 16 Noroeste 30 Noroeste 0 -- -- 72
2019-10-06 01:00:00 22.3 17 Noroeste 32 Noroeste 0 -- -- 73
2019-10-06 00:00:00 22.3 15 Noroeste 30 Noroeste 0 -- -- 70
2019-10-05 23:00:00 22.5 17 Noroeste 33 Norte 0 -- -- 70
2019-10-05 22:00:00 22.5 15 Noroeste 28 Norte 0 -- -- 71
2019-10-05 21:00:00 22.6 16 Norte 30 Noroeste 0 -- -- 69
2019-10-05 20:00:00 22.8 21 Noroeste 33 Noroeste 0 -- -- 69
2019-10-05 19:00:00 23.3 18 Norte 32 Norte 0 -- -- 69
2019-10-05 18:00:00 23.3 17 Norte 32 Norte 0 -- -- 70
2019-10-05 17:00:00 24 22 Noroeste 39 Noroeste 0 -- -- 66
2019-10-05 16:00:00 23.7 21 Norte 38 Norte 0 -- -- 68
2019-10-05 15:00:00 23.8 14 Noroeste 33 Noroeste 0 -- -- 72
2019-10-05 14:00:00 23.4 26 Norte 33 Norte 0 -- -- 69
2019-10-05 13:00:00 23.7 19 Norte 33 Norte 0 -- -- 68
2019-10-05 12:00:00 23.7 15 Noroeste 28 Noroeste 0 -- -- 72
2019-10-05 11:00:00 23.4 15 Norte 30 Norte 0 -- -- 69
2019-10-05 10:00:00 22.8 16 Norte 28 Norte 0 -- -- 73
2019-10-05 09:00:00 22.8 12 Noroeste 26 Noroeste 0 -- -- 75
2019-10-05 08:00:00 22.8 10 Noroeste 28 Noroeste 0 -- -- 74
2019-10-05 07:00:00 22.9 15 Noroeste 28 Noroeste 0 -- -- 73
2019-10-05 06:00:00 22.5 14 Noroeste 26 Noroeste 0 -- -- 73
2019-10-05 05:00:00 22.3 18 Norte 26 Noroeste 0 -- -- 74
2019-10-05 04:00:00 22.4 15 Noroeste 27 Noroeste 0 -- -- 72
2019-10-05 03:00:00 22.5 14 Noroeste 27 Noroeste 0 -- -- 70
2019-10-05 02:00:00 22.4 14 Norte 29 Noroeste 0 -- -- 72
2019-10-05 01:00:00 22.3 15 Noroeste 32 Noroeste 0 -- -- 70
2019-10-05 00:00:00 22.4 18 Noroeste 37 Noroeste 0 -- -- 72
2019-10-04 23:00:00 22.3 24 Noroeste 44 Noroeste 0 -- -- 72
2019-10-04 22:00:00 22.5 24 Noroeste 46 Noroeste 0 -- -- 72
2019-10-04 21:00:00 23.6 20 Noroeste 39 Noroeste 0 -- -- 71
2019-10-04 20:00:00 22.6 23 Noroeste 39 Noroeste 0 -- -- 72
2019-10-04 19:00:00 22.6 21 Noroeste 41 Noroeste 0 -- -- 72
2019-10-04 18:00:00 24.2 20 Noroeste 39 Noroeste 0 -- -- 67
2019-10-04 17:00:00 23.5 17 Noroeste 42 Noroeste 0 -- -- 68
2019-10-04 16:00:00 23 21 Norte 42 Noroeste 0 -- -- 68
2019-10-04 15:00:00 23.6 20 Noroeste 36 Norte 0 -- -- 67
2019-10-04 14:00:00 23.8 19 Norte 42 Noroeste 0 -- -- 67
2019-10-04 13:00:00 24.3 15 Noroeste 39 Noroeste 0 -- -- 68
2019-10-04 12:00:00 25.3 28 Noroeste 40 Noroeste 0 -- -- 68
2019-10-04 11:00:00 22.9 21 Noroeste 36 Norte 0 -- -- 73
2019-10-04 10:00:00 22.5 17 Noroeste 35 Noroeste 0 -- -- 72
2019-10-04 09:00:00 22.3 20 Noroeste 38 Noroeste 0 -- -- 74
2019-10-04 08:00:00 21.9 21 Noroeste 41 Noroeste 0 -- -- 77
2019-10-04 07:00:00 21.9 23 Noroeste 48 Noroeste 0 -- -- 77
2019-10-04 06:00:00 21.8 25 Noroeste 44 Noroeste 0 -- -- 77
2019-10-04 05:00:00 21.8 24 Noroeste 42 Noroeste 0 -- -- 78
2019-10-04 04:00:00 22 23 Noroeste 40 Noroeste 0 -- -- 75
2019-10-04 03:00:00 22 20 Noroeste 39 Noroeste 0 -- -- 78
2019-10-04 02:00:00 22 26 Noroeste 41 Noroeste 0 -- -- 78
2019-10-04 01:00:00 22.1 19 Noroeste 41 Noroeste 0 -- -- 78
2019-10-04 00:00:00 22.1 21 Noroeste 37 Oeste 0 -- -- 77
2019-10-03 23:00:00 22.4 26 Noroeste 39 Noroeste 0 -- -- 75
2019-10-03 22:00:00 22.2 21 Noroeste 35 Noroeste 0 -- -- 77
2019-10-03 21:00:00 22.5 23 Noroeste 39 Noroeste 0 -- -- 75
2019-10-03 20:00:00 22.8 17 Noroeste 35 Noroeste 0 -- -- 77
2019-10-03 19:00:00 23 20 Noroeste 37 Noroeste 0 -- -- 74
2019-10-03 18:00:00 23.2 20 Noroeste 32 Noroeste 0 -- -- 73
2019-10-03 17:00:00 23.6 15 Norte 31 Noroeste 0 -- -- 72
2019-10-03 16:00:00 24.4 14 Noroeste 30 Noroeste 0 -- -- 69
2019-10-03 15:00:00 24.3 16 Norte 35 Norte 0 -- -- 69
2019-10-03 14:00:00 23.8 14 Norte 29 Norte 0 -- -- 72
2019-10-03 13:00:00 24.8 20 Norte 29 Nordeste 0 -- -- 72
2019-10-03 12:00:00 23.9 16 Norte 31 Noroeste 0 -- -- 74
2019-10-03 11:00:00 23.2 17 Noroeste 26 Noroeste 0 -- -- 75
2019-10-03 10:00:00 22.9 14 Norte 23 Noroeste 0 -- -- 77
2019-10-03 09:00:00 22.4 14 Noroeste 23 Noroeste 0 -- -- 79
2019-10-03 08:00:00 23 13 Noroeste 24 Noroeste 0 -- -- 69
2019-10-03 07:00:00 23.3 14 Noroeste 25 Noroeste 0 -- -- 68
2019-10-03 06:00:00 23 15 Noroeste 23 Noroeste 0 -- -- 72
2019-10-03 05:00:00 23.1 13 Noroeste 23 Noroeste 0 -- -- 72
2019-10-03 04:00:00 22.9 12 Noroeste 20 Noroeste 0 -- -- 75
2019-10-03 03:00:00 22.9 13 Noroeste 36 Noroeste 0 -- -- 78
2019-10-03 02:00:00 22.5 10 Noroeste 22 Noroeste 0 -- -- 81
2019-10-03 01:00:00 22.7 11 Noroeste 24 Noroeste 0 -- -- 83
2019-10-03 00:00:00 22.7 15 Norte 25 Noroeste 0 -- -- 84
2019-10-02 23:00:00 22.7 14 Noroeste 25 Norte 0 -- -- 84
2019-10-02 22:00:00 23.2 10 Noroeste 20 Noroeste 0 -- -- 79
2019-10-02 21:00:00 23.6 9 Noroeste 16 Norte 0 -- -- 77
2019-10-02 20:00:00 23.8 9 Norte 14 Norte 0 -- -- 72
2019-10-02 19:00:00 24.9 5 Norte 15 Noroeste 0 -- -- 67
2019-10-02 18:00:00 24.3 10 Norte 21 Noroeste 0 -- -- 74
2019-10-02 17:00:00 24 13 Norte 19 Noroeste 0 -- -- 74
2019-10-02 16:00:00 25.5 6 Norte 19 Nordeste 0 -- -- 73
2019-10-02 15:00:00 25.2 6 Norte 18 Norte 0 -- -- 72
2019-10-02 14:00:00 26.8 5 Nordeste 17 Nordeste 0 -- -- 68
2019-10-02 13:00:00 25.3 6 Nordeste 19 Norte 0 -- -- 72
2019-10-02 12:00:00 25.3 5 Nordeste 19 Nordeste 0 -- -- 70
2019-10-02 11:00:00 23.6 9 Norte 17 Nordeste 0 -- -- 77
2019-10-02 10:00:00 22.9 11 Norte 19 Norte 0 -- -- 79
2019-10-02 09:00:00 21.9 12 Noroeste 20 Norte 0 -- -- 83
2019-10-02 08:00:00 21.7 14 Noroeste 24 Noroeste 0 -- -- 83
2019-10-02 07:00:00 21.7 16 Noroeste 28 Noroeste 0 -- -- 83
2019-10-02 06:00:00 21.9 17 Noroeste 29 Noroeste 0 -- -- 83
2019-10-02 05:00:00 22 14 Noroeste 33 Noroeste 0 -- -- 81
2019-10-02 04:00:00 21.9 19 Noroeste 30 Noroeste 0 -- -- 84
2019-10-02 03:00:00 22.1 18 Noroeste 28 Noroeste 0 -- -- 85
2019-10-02 02:00:00 22.3 15 Noroeste 30 Noroeste 0 -- -- 85
2019-10-02 01:00:00 22.4 13 Noroeste 22 Noroeste 0 -- -- 85
2019-10-02 00:00:00 22.5 12 Noroeste 22 Noroeste 0 -- -- 85
2019-10-01 23:00:00 22.9 8 Noroeste 19 Noroeste 0 -- -- 82
2019-10-01 22:00:00 22.8 10 Noroeste 21 Norte 0 -- -- 83
2019-10-01 21:00:00 24 13 Norte 22 Norte 0 -- -- 78
2019-10-01 20:00:00 25.2 9 Norte 21 Norte 0 -- -- 69
2019-10-01 19:00:00 24.4 13 Norte 24 Norte 0 -- -- 69
2019-10-01 18:00:00 26.2 15 Norte 23 Norte 0 -- -- 69
2019-10-01 17:00:00 25.4 9 Norte 23 Norte 0 -- -- 68
2019-10-01 16:00:00 26.8 10 Noroeste 36 Norte 0 -- -- 67
2019-10-01 15:00:00 24.9 12 Norte 26 Norte 0 -- -- 70
2019-10-01 14:00:00 24.5 16 Norte 34 Nordeste 0 -- -- 72
2019-10-01 13:00:00 24.9 13 Norte 27 Noroeste 0 -- -- 70
2019-10-01 12:00:00 24.1 14 Norte 28 Norte 0 -- -- 74
2019-10-01 11:00:00 24.2 13 Noroeste 37 Noroeste 0 -- -- 75
2019-10-01 10:00:00 22.6 23 Noroeste 35 Noroeste 0 -- -- 80
2019-10-01 09:00:00 22.1 18 Noroeste 59 Noroeste 0 -- -- 84
2019-10-01 08:00:00 21.8 18 Noroeste 27 Noroeste 0 -- -- 84
2019-10-01 07:00:00 21.8 14 Noroeste 29 Noroeste 0 -- -- 83
2019-10-01 06:00:00 22 18 Noroeste 28 Noroeste 0 -- -- 83
2019-10-01 05:00:00 22 18 Noroeste 33 Noroeste 0 -- -- 81
2019-10-01 04:00:00 21.9 23 Noroeste 35 Noroeste 0 -- -- 81
2019-10-01 03:00:00 23.9 12 Noroeste 32 Oeste 0 -- -- 56
2019-10-01 02:00:00 26.6 14 Noroeste 27 Noroeste 0 -- -- 39
2019-10-01 01:00:00 22.5 18 Noroeste 33 Noroeste 0 -- -- 77
2019-10-01 00:00:00 22.2 26 Noroeste 81 Noroeste 0 -- -- 80
2019-09-30 23:00:00 22.6 17 Noroeste 31 Noroeste 0 -- -- 77
2019-09-30 22:00:00 22.5 21 Noroeste 51 Noroeste 0 -- -- 79
2019-09-30 21:00:00 23.5 18 Noroeste 38 Noroeste 0 -- -- 79
2019-09-30 20:00:00 22.6 27 Noroeste 40 Noroeste 0 -- -- 79
2019-09-30 19:00:00 22.7 30 Noroeste 47 Noroeste 0 -- -- 79
2019-09-30 18:00:00 22.9 32 Noroeste 50 Noroeste 0 -- -- 78
2019-09-30 17:00:00 24.4 26 Noroeste 46 Noroeste 0 -- -- 75
2019-09-30 16:00:00 23.8 20 Noroeste 45 Noroeste 0 -- -- 74
2019-09-30 15:00:00 24.1 23 Noroeste 42 Noroeste 0 -- -- 73
2019-09-30 14:00:00 24.5 18 Noroeste 38 Noroeste 0 -- -- 70
2019-09-30 13:00:00 25.2 16 Noroeste 39 Noroeste 0 -- -- 69
2019-09-30 12:00:00 23.3 23 Noroeste 41 Noroeste 0 -- -- 74
2019-09-30 11:00:00 23.5 21 Noroeste 36 Noroeste 0 -- -- 74
2019-09-30 10:00:00 23.4 21 Noroeste 34 Noroeste 0 -- -- 77
2019-09-30 09:00:00 21.9 21 Noroeste 39 Noroeste 0 -- -- 80
2019-09-30 08:00:00 21.6 21 Noroeste 42 Noroeste 0 -- -- 80
2019-09-30 07:00:00 21.5 22 Noroeste 38 Noroeste 0 -- -- 81
2019-09-30 06:00:00 22 25 Noroeste 44 Noroeste 0 -- -- 79
2019-09-30 05:00:00 21.4 22 Noroeste 37 Noroeste 0 -- -- 79
2019-09-30 04:00:00 21.6 20 Noroeste 33 Noroeste 0 -- -- 79
2019-09-30 03:00:00 21.7 20 Noroeste 30 Noroeste 0 -- -- 79
2019-09-30 02:00:00 22 16 Noroeste 26 Noroeste 0 -- -- 78
2019-09-30 01:00:00 22.2 13 Noroeste 26 Noroeste 0 -- -- 78
2019-09-30 00:00:00 22.3 17 Noroeste 34 Noroeste 0 -- -- 78
2019-09-29 23:00:00 22.4 18 Noroeste 32 Norte 0 -- -- 77
2019-09-29 22:00:00 22.5 19 Noroeste 36 Noroeste 0 -- -- 77
2019-09-29 21:00:00 22.4 29 Noroeste 41 Noroeste 0 -- -- 77
2019-09-29 20:00:00 22.5 19 Noroeste 35 Noroeste 0 -- -- 78
2019-09-29 19:00:00 22.6 18 Noroeste 37 Noroeste 0 -- -- 77
2019-09-29 18:00:00 22.9 25 Noroeste 40 Noroeste 0 -- -- 75
2019-09-29 17:00:00 24.7 11 Norte 30 Norte 0 -- -- 69
2019-09-29 16:00:00 24.1 15 Norte 28 Norte 0 -- -- 70
2019-09-29 15:00:00 24.1 12 Norte 26 Nordeste 0 -- -- 69
2019-09-29 14:00:00 24.8 12 Norte 27 Norte 0 -- -- 68
2019-09-29 13:00:00 24.6 14 Norte 23 Norte 0 -- -- 69
2019-09-29 12:00:00 23.2 11 Norte 24 Norte 0 -- -- 72
2019-09-29 11:00:00 22.9 11 Norte 22 Nordeste 0 -- -- 72
2019-09-29 10:00:00 22.1 13 Norte 23 Norte 0 -- -- 73
2019-09-29 09:00:00 22.1 10 Norte 24 Noroeste 0 -- -- 73
2019-09-29 08:00:00 22 12 Norte 22 Norte 0 -- -- 73
2019-09-29 07:00:00 22.1 11 Noroeste 26 Noroeste 0 -- -- 74
2019-09-29 06:00:00 21.9 14 Noroeste 25 Noroeste 0 -- -- 73
2019-09-29 05:00:00 21.9 14 Noroeste 23 Norte 0 -- -- 74
2019-09-29 04:00:00 22 15 Noroeste 26 Norte 0 -- -- 74
2019-09-29 03:00:00 22 13 Norte 25 Noroeste 0 -- -- 74
2019-09-29 02:00:00 22 12 Noroeste 22 Norte 0 -- -- 75
2019-09-29 01:00:00 22.1 15 Noroeste 24 Noroeste 0 -- -- 75
2019-09-29 00:00:00 22 17 Noroeste 29 Noroeste 0 -- -- 75
2019-09-28 23:00:00 23.6 12 Noroeste 32 Noroeste 0 -- -- 74
2019-09-28 22:00:00 22 14 Noroeste 28 Norte 0 -- -- 74
2019-09-28 21:00:00 21.9 19 Noroeste 27 Noroeste 0 -- -- 73
2019-09-28 20:00:00 22.5 14 Noroeste 29 Noroeste 0 -- -- 72
2019-09-28 19:00:00 22.6 15 Norte 24 Norte 0 -- -- 69
2019-09-28 18:00:00 23 15 Norte 25 Norte 0 -- -- 69
2019-09-28 17:00:00 23.3 14 Norte 26 Norte 0 -- -- 67
2019-09-28 16:00:00 24.3 8 Norte 27 Nordeste 0 -- -- 63
2019-09-28 15:00:00 23.8 9 Norte 21 Nordeste 0 -- -- 63
2019-09-28 14:00:00 24.8 9 Norte 23 Nordeste 0 -- -- 66
2019-09-28 13:00:00 24.7 8 Norte 21 Nordeste 0 -- -- 66
2019-09-28 12:00:00 23.2 10 Norte 21 Nordeste 0 -- -- 69
2019-09-28 11:00:00 23.5 10 Norte 23 Norte 0 -- -- 69
2019-09-28 10:00:00 22.1 13 Norte 20 Noroeste 0 -- -- 74
2019-09-28 09:00:00 21.7 11 Noroeste 21 Noroeste 0 -- -- 75
2019-09-28 08:00:00 21.4 13 Norte 21 Norte 0 -- -- 75
2019-09-28 07:00:00 21.4 12 Noroeste 21 Noroeste 0 -- -- 75
2019-09-28 06:00:00 21.4 13 Noroeste 22 Noroeste 0 -- -- 75
2019-09-28 05:00:00 21.6 14 Noroeste 23 Noroeste 0 -- -- 75
2019-09-28 04:00:00 21.7 12 Noroeste 22 Norte 0 -- -- 76
2019-09-28 03:00:00 21.6 14 Noroeste 26 Noroeste 0 -- -- 76
2019-09-28 02:00:00 23.1 11 Noroeste 21 Norte 0 -- -- 75
2019-09-28 01:00:00 21.9 13 Norte 22 Norte 0 -- -- 75
2019-09-28 00:00:00 22.1 13 Noroeste 21 Noroeste 0 -- -- 75
2019-09-27 23:00:00 22 14 Noroeste 21 Norte 0 -- -- 75
2019-09-27 22:00:00 22.1 14 Norte 22 Norte 0 -- -- 74
2019-09-27 21:00:00 22.4 12 Noroeste 24 Noroeste 0 -- -- 71
2019-09-27 20:00:00 22.4 16 Norte 25 Norte 0 -- -- 73
2019-09-27 19:00:00 23.4 12 Norte 26 Norte 0 -- -- 68
2019-09-27 18:00:00 23.3 15 Norte 26 Norte 0 -- -- 68
2019-09-27 17:00:00 23 18 Norte 28 Norte 0 -- -- 66
2019-09-27 16:00:00 23.4 16 Norte 28 Norte 0 -- -- 67
2019-09-27 15:00:00 24 14 Norte 28 Nordeste 0 -- -- 64
2019-09-27 14:00:00 24.8 16 Norte 27 Norte 0 -- -- 64
2019-09-27 13:00:00 23.5 14 Norte 31 Nordeste 0 -- -- 64
2019-09-27 12:00:00 23.8 12 Norte 27 Norte 0 -- -- 67
2019-09-27 11:00:00 23.4 15 Norte 27 Norte 0 -- -- 67
2019-09-27 10:00:00 23.2 14 Norte 24 Noroeste 0 -- -- 68
2019-09-27 09:00:00 22.9 12 Norte 20 Noroeste 0 -- -- 70
2019-09-27 08:00:00 22.4 13 Norte 22 Norte 0 -- -- 69
2019-09-27 07:00:00 22.3 14 Norte 23 Norte 0 -- -- 72
2019-09-27 06:00:00 22.3 12 Noroeste 26 Noroeste 0 -- -- 73
2019-09-27 05:00:00 22.3 15 Noroeste 25 Noroeste 0 -- -- 70
2019-09-27 04:00:00 22.5 14 Norte 26 Norte 0 -- -- 68
2019-09-27 03:00:00 22.4 12 Norte 24 Noroeste 0 -- -- 72
2019-09-27 02:00:00 22.5 16 Norte 26 Norte 0 -- -- 70
2019-09-27 01:00:00 22.5 14 Norte 21 Noroeste 0 -- -- 70
2019-09-27 00:00:00 22.8 9 Noroeste 21 Norte 0 -- -- 69
2019-09-26 23:00:00 22.7 16 Norte 23 Norte 0 -- -- 69
2019-09-26 22:00:00 23.8 17 Norte 26 Norte 0 -- -- 69
2019-09-26 21:00:00 22.9 14 Noroeste 26 Noroeste 0 -- -- 68
2019-09-26 20:00:00 22.9 13 Norte 27 Norte 0 -- -- 67
2019-09-26 19:00:00 23 16 Norte 30 Norte 0 -- -- 66
2019-09-26 18:00:00 23.3 15 Norte 29 Norte 0 -- -- 66
2019-09-26 17:00:00 23.1 14 Norte 25 Norte 0 -- -- 68
2019-09-26 16:00:00 23.5 11 Norte 22 Nordeste 0 -- -- 68
2019-09-26 15:00:00 23.8 14 Norte 26 Norte 0 -- -- 64
2019-09-26 14:00:00 24 15 Norte 28 Norte 0 -- -- 64
2019-09-26 13:00:00 24.3 11 Norte 26 Norte 0 -- -- 68
2019-09-26 12:00:00 24.7 15 Norte 25 Nordeste 0 -- -- 68
2019-09-26 11:00:00 23.3 11 Norte 23 Norte 0 -- -- 70
2019-09-26 10:00:00 23.6 10 Norte 22 Norte 0 -- -- 68
2019-09-26 09:00:00 22.6 11 Norte 19 Noroeste 0 -- -- 75
2019-09-26 08:00:00 22.4 12 Norte 22 Norte 0 -- -- 75
2019-09-26 07:00:00 22.4 13 Noroeste 23 Norte 0 -- -- 75
2019-09-26 06:00:00 22.3 12 Noroeste 23 Noroeste 0 -- -- 73
2019-09-26 05:00:00 22.3 12 Noroeste 21 Norte 0 -- -- 76
2019-09-26 04:00:00 22.4 12 Noroeste 23 Oeste 0 -- -- 76
2019-09-26 03:00:00 22.4 13 Noroeste 25 Noroeste 0 -- -- 76
2019-09-26 02:00:00 22.4 12 Noroeste 20 Noroeste 0 -- -- 77
2019-09-26 01:00:00 22.4 10 Noroeste 20 Noroeste 0 -- -- 77
2019-09-26 00:00:00 22.5 11 Noroeste 22 Noroeste 0 -- -- 77
2019-09-25 23:00:00 22.5 13 Noroeste 26 Noroeste 0 -- -- 75
2019-09-25 22:00:00 22.6 11 Noroeste 28 Noroeste 0 -- -- 77
2019-09-25 21:00:00 22.7 18 Noroeste 28 Noroeste 0 -- -- 75
2019-09-25 20:00:00 22.8 15 Norte 29 Norte 0 -- -- 73
2019-09-25 19:00:00 23 18 Norte 31 Noroeste 0 -- -- 70
2019-09-25 18:00:00 23.1 15 Norte 28 Norte 0 -- -- 69
2019-09-25 17:00:00 23.1 18 Norte 32 Norte 0 -- -- 69
2019-09-25 16:00:00 25.3 15 Norte 28 Norte 0 -- -- 65
2019-09-25 15:00:00 23.7 17 Norte 30 Norte 0 -- -- 67
2019-09-25 14:00:00 23 18 Norte 31 Nordeste 0 -- -- 69
2019-09-25 13:00:00 23 14 Norte 28 Norte 0 -- -- 67
2019-09-25 12:00:00 24.4 14 Noroeste 33 Noroeste 0 -- -- 66
2019-09-25 11:00:00 22.7 20 Noroeste 32 Noroeste 0 -- -- 68
2019-09-25 10:00:00 22.5 18 Noroeste 33 Noroeste 0 -- -- 69
2019-09-25 09:00:00 22.6 13 Noroeste 29 Noroeste 0 -- -- 70
2019-09-25 08:00:00 21.8 13 Noroeste 28 Noroeste 0 -- -- 72
2019-09-25 07:00:00 21.8 16 Noroeste 27 Noroeste 0 -- -- 72
2019-09-25 06:00:00 21.8 18 Noroeste 39 Oeste 0 -- -- 71
2019-09-25 05:00:00 21.7 18 Noroeste 29 Noroeste 0 -- -- 72
2019-09-25 04:00:00 21.8 13 Noroeste 26 Noroeste 0 -- -- 70
2019-09-25 03:00:00 21.9 17 Noroeste 30 Noroeste 0 -- -- 68
2019-09-25 02:00:00 22.3 14 Noroeste 26 Noroeste 0 -- -- 66
2019-09-25 01:00:00 22.4 14 Noroeste 27 Noroeste 0 -- -- 64
2019-09-25 00:00:00 22.3 10 Noroeste 27 Noroeste 0 -- -- 65
2019-09-24 23:00:00 22.4 17 Noroeste 26 Noroeste 0 -- -- 64
2019-09-24 22:00:00 22.5 14 Noroeste 28 Norte 0 -- -- 66
2019-09-24 21:00:00 22.4 14 Norte 29 Norte 0 -- -- 64
2019-09-24 20:00:00 24.1 18 Noroeste 32 Noroeste 0 -- -- 63
2019-09-24 19:00:00 22.9 17 Noroeste 33 Noroeste 0 -- -- 63
2019-09-24 18:00:00 22.8 19 Norte 60 Noroeste 0 -- -- 64
2019-09-24 17:00:00 25.6 14 Noroeste 36 Noroeste 0 -- -- 62
2019-09-24 16:00:00 22.9 19 Norte 29 Norte 0 -- -- 62
2019-09-24 15:00:00 23.3 17 Norte 34 Norte 0 -- -- 64
2019-09-24 14:00:00 23.1 19 Norte 33 Norte 0 -- -- 64
2019-09-24 13:00:00 23.2 15 Norte 36 Norte 0 -- -- 64
2019-09-24 12:00:00 25.3 18 Norte 32 Norte 0 -- -- 61
2019-09-24 11:00:00 23.3 17 Norte 29 Norte 0 -- -- 62
2019-09-24 10:00:00 22.9 18 Norte 26 Noroeste 0 -- -- 67
2019-09-24 09:00:00 22.6 15 Norte 27 Noroeste 0 -- -- 70
2019-09-24 08:00:00 22 10 Noroeste 23 Norte 0 -- -- 73
2019-09-24 07:00:00 22.1 14 Norte 30 Norte 0 -- -- 72
2019-09-24 06:00:00 22 14 Norte 24 Norte 0 -- -- 74
2019-09-24 05:00:00 21.9 13 Norte 23 Norte 0 -- -- 77
2019-09-24 04:00:00 21.8 12 Noroeste 23 Noroeste 0 -- -- 75
2019-09-24 03:00:00 21.9 11 Noroeste 21 Noroeste 0 -- -- 73
2019-09-24 02:00:00 22.1 9 Noroeste 16 Noroeste 0 -- -- 73
2019-09-24 01:00:00 22.1 10 Noroeste 19 Noroeste 0 -- -- 72
2019-09-24 00:00:00 22.2 12 Noroeste 25 Noroeste 0 -- -- 70
2019-09-23 23:00:00 22.4 10 Noroeste 22 Norte 0 -- -- 70
2019-09-23 22:00:00 22.6 14 Noroeste 26 Norte 0 -- -- 71
2019-09-23 21:00:00 22.6 15 Norte 27 Norte 0 -- -- 70
2019-09-23 20:00:00 22.8 14 Noroeste 24 Norte 0 -- -- 69
2019-09-23 19:00:00 23.4 12 Norte 23 Norte 0 -- -- 67
2019-09-23 18:00:00 23 15 Norte 25 Nordeste 0 -- -- 67
2019-09-23 17:00:00 23.1 17 Norte 30 Norte 0 -- -- 68
2019-09-23 16:00:00 23.3 18 Norte 30 Norte 0 -- -- 64
2019-09-23 15:00:00 23.8 14 Norte 30 Norte 0 -- -- 63
2019-09-23 14:00:00 23.6 13 Norte 30 Nordeste 0 -- -- 66
2019-09-23 13:00:00 24.4 12 Norte 24 Nordeste 0 -- -- 62
2019-09-23 12:00:00 24.5 12 Norte 27 Norte 0 -- -- 62
2019-09-23 11:00:00 23.7 12 Norte 28 Norte 0 -- -- 64
2019-09-23 10:00:00 23.4 11 Norte 26 Norte 0 -- -- 66
2019-09-23 09:00:00 22.4 10 Noroeste 19 Noroeste 0 -- -- 72
2019-09-23 08:00:00 22 14 Norte 23 Noroeste 0 -- -- 72
2019-09-23 07:00:00 21.8 14 Noroeste 22 Noroeste 0 -- -- 75
2019-09-23 06:00:00 22 16 Norte 24 Norte 0 -- -- 77
2019-09-23 05:00:00 22.1 15 Noroeste 23 Noroeste 0 -- -- 80
2019-09-23 04:00:00 22.1 12 Noroeste 22 Norte 0 -- -- 81
2019-09-23 03:00:00 22.3 14 Norte 21 Noroeste 0 -- -- 83
2019-09-23 02:00:00 22.3 11 Norte 19 Noroeste 0 -- -- 83
2019-09-23 01:00:00 22.5 12 Noroeste 19 Noroeste 0 -- -- 83
2019-09-23 00:00:00 22.1 10 Noroeste 25 Norte 0 -- -- 85
2019-09-22 23:00:00 22.1 13 Noroeste 23 Norte 0 -- -- 85
2019-09-22 22:00:00 22.9 10 Norte 26 Norte 0 -- -- 84
2019-09-22 21:00:00 22 14 Norte 31 Norte 0.3 -- -- 90
2019-09-22 20:00:00 23.1 14 Norte 27 Norte 0 -- -- 84
2019-09-22 19:00:00 23.8 13 Noroeste 28 Noroeste 0 -- -- 82
2019-09-22 18:00:00 24.4 18 Noroeste 26 Noroeste 0 -- -- 77
2019-09-22 17:00:00 26 10 Norte 26 Noroeste 0 -- -- 66
2019-09-22 16:00:00 25.8 13 Noroeste 31 Noroeste 0 -- -- 69
2019-09-22 15:00:00 25.5 12 Noroeste 28 Noroeste 0 -- -- 69
2019-09-22 14:00:00 24.8 15 Norte 29 Oeste 0 -- -- 69
2019-09-22 13:00:00 24.4 20 Norte 28 Oeste 0 -- -- 68
2019-09-22 12:00:00 25.3 14 Noroeste 28 Noroeste 0 -- -- 67
2019-09-22 11:00:00 25.2 12 Noroeste 25 Noroeste 0 -- -- 66
2019-09-22 10:00:00 24.1 10 Noroeste 18 Noroeste 0 -- -- 67
2019-09-22 09:00:00 23.8 9 Noroeste 23 Noroeste 0 -- -- 68
2019-09-22 08:00:00 22.4 11 Oeste 24 Oeste 0 -- -- 73
2019-09-22 07:00:00 21.9 13 Oeste 25 Oeste 0 -- -- 75
2019-09-22 06:00:00 21.8 10 Oeste 20 Noroeste 0 -- -- 77
2019-09-22 05:00:00 22.1 13 Noroeste 21 Noroeste 0 -- -- 77
2019-09-22 04:00:00 22.3 13 Noroeste 23 Noroeste 0 -- -- 74
2019-09-22 03:00:00 22.2 8 Noroeste 21 Noroeste 0 -- -- 77
2019-09-22 02:00:00 22.3 12 Noroeste 24 Noroeste 0 -- -- 79
2019-09-22 01:00:00 22.4 14 Noroeste 22 Noroeste 0 -- -- 80
2019-09-22 00:00:00 22.4 13 Noroeste 24 Oeste 0 -- -- 80
2019-09-21 23:00:00 22.6 12 Noroeste 26 Noroeste 0 -- -- 79
2019-09-21 22:00:00 22.7 16 Noroeste 24 Noroeste 0 -- -- 77
2019-09-21 21:00:00 22.6 15 Noroeste 26 Noroeste 0 -- -- 75
2019-09-21 20:00:00 22.8 13 Noroeste 30 Noroeste 0 -- -- 73
2019-09-21 19:00:00 23.4 13 Noroeste 27 Noroeste 0 -- -- 69
2019-09-21 18:00:00 23.8 17 Noroeste 34 Noroeste 0 -- -- 68
2019-09-21 17:00:00 25.8 14 Noroeste 35 Noroeste 0 -- -- 64
2019-09-21 16:00:00 24.6 18 Noroeste 33 Noroeste 0 -- -- 66
2019-09-21 15:00:00 24.7 15 Norte 30 Noroeste 0 -- -- 66
2019-09-21 14:00:00 23.5 15 Norte 29 Norte 0 -- -- 67
2019-09-21 13:00:00 24.3 13 Norte 24 Noroeste 0 -- -- 66
2019-09-21 12:00:00 25.4 12 Noroeste 27 Noroeste 0 -- -- 66
2019-09-21 11:00:00 23.3 15 Noroeste 28 Noroeste 0 -- -- 69
2019-09-21 10:00:00 22.7 15 Noroeste 23 Noroeste 0 -- -- 70
2019-09-21 09:00:00 22.5 10 Noroeste 19 Noroeste 0 -- -- 73
2019-09-21 08:00:00 21.3 10 Noroeste 16 Noroeste 0 -- -- 74
2019-09-21 07:00:00 21.7 9 Noroeste 16 Noroeste 0 -- -- 73
2019-09-21 06:00:00 22 8 Noroeste 17 Noroeste 0 -- -- 73
2019-09-21 05:00:00 22.3 10 Noroeste 14 Noroeste 0 -- -- 71
2019-09-21 04:00:00 22.5 7 Noroeste 15 Noroeste 0 -- -- 72
2019-09-21 03:00:00 22.6 6 Noroeste 15 Norte 0 -- -- 70
2019-09-21 02:00:00 22.6 7 Norte 15 Norte 0 -- -- 74
2019-09-21 01:00:00 22.5 8 Noroeste 14 Noroeste 0 -- -- 74
2019-09-21 00:00:00 22.5 5 Noroeste 19 Noroeste 0 -- -- 75
2019-09-20 23:00:00 22.5 8 Noroeste 18 Noroeste 0 -- -- 75
2019-09-20 22:00:00 23.8 8 Noroeste 21 Noroeste 0 -- -- 73
2019-09-20 21:00:00 22.8 8 Noroeste 26 Noroeste 0 -- -- 73
2019-09-20 20:00:00 22.7 17 Noroeste 30 Noroeste 0 -- -- 73
2019-09-20 19:00:00 23.2 15 Noroeste 36 Noroeste 0 -- -- 70
2019-09-20 18:00:00 23.5 18 Noroeste 35 Noroeste 0 -- -- 68
2019-09-20 17:00:00 23.5 22 Noroeste 32 Noroeste 0 -- -- 67
2019-09-20 16:00:00 24.3 14 Norte 27 Norte 0 -- -- 63
2019-09-20 15:00:00 23.7 13 Nordeste 26 Norte 0 -- -- 66
2019-09-20 14:00:00 25.8 10 Norte 25 Nordeste 0 -- -- 64
2019-09-20 13:00:00 26.6 9 Nordeste 27 Nordeste 0 -- -- 60
2019-09-20 12:00:00 23.7 14 Nordeste 26 Nordeste 0 -- -- 68
2019-09-20 11:00:00 24.4 10 Nordeste 18 Nordeste 0 -- -- 64
2019-09-20 10:00:00 23.9 7 Norte 19 Noroeste 0 -- -- 65
2019-09-20 09:00:00 22.2 14 Noroeste 24 Noroeste 0 -- -- 74
2019-09-20 08:00:00 22 15 Noroeste 28 Noroeste 0 -- -- 74
2019-09-20 07:00:00 21.9 15 Noroeste 29 Noroeste 0 -- -- 73
2019-09-20 06:00:00 21.9 14 Noroeste 27 Noroeste 0 -- -- 75
2019-09-20 05:00:00 21.7 19 Noroeste 28 Noroeste 0 -- -- 75
2019-09-20 04:00:00 21.7 16 Noroeste 26 Noroeste 0 -- -- 76
2019-09-20 03:00:00 21.8 16 Noroeste 27 Noroeste 0 -- -- 77
2019-09-20 02:00:00 21.9 15 Noroeste 26 Noroeste 0 -- -- 77
2019-09-20 01:00:00 21.9 15 Noroeste 27 Noroeste 0 -- -- 77
2019-09-20 00:00:00 21.9 17 Noroeste 30 Noroeste 0 -- -- 78
2019-09-19 23:00:00 22.1 15 Noroeste 30 Noroeste 0 -- -- 76
2019-09-19 22:00:00 22.1 15 Noroeste 29 Noroeste 0 -- -- 77
2019-09-19 21:00:00 22.3 17 Noroeste 30 Noroeste 0 -- -- 75
2019-09-19 20:00:00 22.5 15 Norte 24 Norte 0 -- -- 74
2019-09-19 19:00:00 23.3 12 Norte 28 Noroeste 0 -- -- 72
2019-09-19 18:00:00 23.5 13 Norte 24 Norte 0 -- -- 72
2019-09-19 17:00:00 23.6 12 Norte 27 Norte 0 -- -- 70
2019-09-19 16:00:00 23.8 9 Noroeste 26 Norte 0 -- -- 68
2019-09-19 15:00:00 24 13 Norte 29 Nordeste 0 -- -- 66
2019-09-19 14:00:00 24.3 13 Norte 29 Norte 0 -- -- 65
2019-09-19 13:00:00 24.4 10 Norte 28 Nordeste 0 -- -- 62
2019-09-19 12:00:00 23.4 13 Norte 26 Norte 0 -- -- 67
2019-09-19 11:00:00 23.8 11 Norte 22 Norte 0 -- -- 68
2019-09-19 10:00:00 23.9 12 Norte 21 Norte 0 -- -- 68
2019-09-19 09:00:00 22.5 12 Norte 21 Noroeste 0 -- -- 73
2019-09-19 08:00:00 22 8 Norte 15 Noroeste 0 -- -- 74
2019-09-19 07:00:00 21.9 10 Norte 21 Noroeste 0 -- -- 73
2019-09-19 06:00:00 21.9 13 Norte 22 Noroeste 0 -- -- 72
2019-09-19 05:00:00 21.9 13 Noroeste 21 Noroeste 0 -- -- 73
2019-09-19 04:00:00 21.8 12 Norte 20 Noroeste 0 -- -- 74
2019-09-19 03:00:00 22 10 Norte 21 Norte 0 -- -- 74
2019-09-19 02:00:00 21.9 9 Norte 19 Norte 0 -- -- 74
2019-09-19 01:00:00 22.1 8 Noroeste 18 Norte 0 -- -- 74
2019-09-19 00:00:00 22.1 10 Norte 20 Norte 0 -- -- 75
2019-09-18 23:00:00 23.6 9 Norte 18 Noroeste 0 -- -- 74
2019-09-18 22:00:00 22.3 11 Norte 20 Noroeste 0 -- -- 74
2019-09-18 21:00:00 22.5 12 Norte 21 Norte 0 -- -- 73
2019-09-18 20:00:00 22.5 15 Norte 20 Norte 0 -- -- 73
2019-09-18 19:00:00 24.4 10 Norte 19 Nordeste 0 -- -- 68
2019-09-18 18:00:00 24 9 Norte 24 Nordeste 0 -- -- 68
2019-09-18 17:00:00 23.5 12 Nordeste 24 Nordeste 0 -- -- 67
2019-09-18 16:00:00 25.5 10 Nordeste 24 Nordeste 0 -- -- 63
2019-09-18 15:00:00 23.7 13 Nordeste 24 Nordeste 0 -- -- 64
2019-09-18 14:00:00 24.4 8 Norte 25 Norte 0 -- -- 61
2019-09-18 13:00:00 24.7 10 Norte 22 Norte 0 -- -- 62
2019-09-18 12:00:00 24.4 9 Norte 19 Norte 0 -- -- 64
2019-09-18 11:00:00 23.1 12 Norte 22 Nordeste 0 -- -- 67
2019-09-18 10:00:00 23.1 8 Norte 21 Norte 0 -- -- 64
2019-09-18 09:00:00 22.4 8 Norte 18 Nordeste 0 -- -- 68
2019-09-18 08:00:00 23.3 7 Nordeste 15 Norte 0 -- -- 69
2019-09-18 07:00:00 22 7 Norte 18 Norte 0 -- -- 72
2019-09-18 06:00:00 21.7 10 Norte 19 Nordeste 0 -- -- 74
2019-09-18 05:00:00 21.8 10 Noroeste 22 Noroeste 0 -- -- 72
2019-09-18 04:00:00 21.8 14 Norte 22 Norte 0 -- -- 73
2019-09-18 03:00:00 22 13 Norte 19 Norte 0 -- -- 75
2019-09-18 02:00:00 21.9 8 Norte 17 Norte 0 -- -- 76
2019-09-18 01:00:00 22.1 10 Norte 18 Norte 0 -- -- 77
2019-09-18 00:00:00 22.2 9 Norte 17 Noroeste 0 -- -- 77
2019-09-17 23:00:00 22.3 10 Norte 18 Norte 0 -- -- 75
2019-09-17 22:00:00 22.5 9 Norte 21 Norte 0 -- -- 75
2019-09-17 21:00:00 22.3 12 Norte 21 Norte 0 -- -- 74
2019-09-17 20:00:00 22.4 11 Norte 19 Norte 0 -- -- 73
2019-09-15 17:00:00 25.7 8 Nordeste 20 Norte 0 -- -- 63
2019-09-15 16:00:00 25.5 8 Nordeste 18 Nordeste 0 -- -- 66
2019-09-15 15:00:00 26.3 3 Norte 18 Nordeste 0 -- -- 64
2019-09-15 14:00:00 25.5 8 Norte 21 Norte 0 -- -- 67
2019-09-15 13:00:00 24.1 10 Norte 22 Norte 0 -- -- 70
2019-09-15 12:00:00 24.5 8 Nordeste 17 Norte 0 -- -- 68
2019-09-15 11:00:00 24 5 Norte 16 Noroeste 0 -- -- 68
2019-09-15 10:00:00 22.8 7 Norte 13 Norte 0 -- -- 72
2019-09-15 09:00:00 22.1 3 Noroeste 10 Noroeste 0 -- -- 75
2019-09-15 08:00:00 21 5 Noroeste 11 Noroeste 0 -- -- 78
2019-09-15 07:00:00 20.9 7 Noroeste 15 Noroeste 0 -- -- 78
2019-09-15 06:00:00 21 10 Noroeste 15 Noroeste 0 -- -- 77
2019-09-15 05:00:00 21.1 6 Noroeste 11 Noroeste 0 -- -- 77
2019-09-15 04:00:00 21.4 0 Calma 10 Nordeste 0 -- -- 77
2019-09-15 03:00:00 21.7 4 Norte 12 Norte 0 -- -- 77
2019-09-15 02:00:00 21.8 7 Norte 13 Norte 0 -- -- 78
2019-09-15 01:00:00 21.9 7 Norte 12 Nordeste 0 -- -- 78
2019-09-15 00:00:00 22 5 Norte 17 Nordeste 0 -- -- 78